Time;durP1;ratioP1;P1;durP2;ratioP2;P2;SDS_P1;SDS_P2;PMS_P1;PMS_P2;Temp;Humidity;BMP_temperature;BMP_pressure;BME280_temperature;BME280_humidity;BME280_pressure;Samples;Min_cycle;Max_cycle;Signal;HPM_P1;HPM_P2
2022/10/11 00:01:00;;;;;;;669.72;610.13;;;14.90;99.90;;;15.03;100.00;101039.22;4812326;29;20230;-61
2022/10/11 00:03:28;;;;;;;624.65;572.42;;;14.80;99.90;;;15.02;100.00;101037.44;4816021;29;20242;-62
2022/10/11 00:05:56;;;;;;;631.75;578.13;;;14.80;99.90;;;15.02;100.00;101045.44;4832099;29;20226;-62
2022/10/11 00:08:24;;;;;;;623.25;570.47;;;14.80;99.90;;;15.03;100.00;101052.53;4810125;29;20207;-61
2022/10/11 00:11:01;;;;;;;615.10;563.72;;;14.80;99.90;;;15.02;100.00;101049.00;4800463;29;20214;-61
2022/10/11 00:13:30;;;;;;;646.75;589.55;;;14.80;99.90;;;14.99;100.00;101053.41;4794923;29;20237;-62
2022/10/11 00:15:58;;;;;;;638.97;583.90;;;14.80;99.90;;;14.94;100.00;101048.09;4831069;29;20207;-62
2022/10/11 00:18:25;;;;;;;638.50;584.13;;;14.80;99.90;;;14.96;100.00;101053.41;4830677;29;20219;-62
2022/10/11 00:21:03;;;;;;;626.00;572.83;;;14.80;99.90;;;14.94;100.00;101053.41;4826036;29;20710;-62
2022/10/11 00:23:32;;;;;;;629.65;574.85;;;14.80;99.90;;;14.94;100.00;101053.41;4827010;29;20237;-61
2022/10/11 00:26:04;;;;;;;625.72;572.47;;;14.80;99.90;;;14.89;100.00;101052.53;4830021;29;20202;-62
2022/10/11 00:28:33;;;;;;;627.53;573.83;;;14.70;99.90;;;14.88;100.00;101052.53;4808624;29;20220;-62
2022/10/11 00:31:10;;;;;;;628.97;574.72;;;14.70;99.90;;;14.85;100.00;101056.06;4829839;29;20226;-62
2022/10/11 00:33:38;;;;;;;630.42;576.13;;;14.70;99.90;;;14.82;100.00;101068.50;4827260;29;20234;-61
2022/10/11 00:36:07;;;;;;;623.35;570.92;;;14.60;99.90;;;14.81;100.00;101062.28;4820422;29;20213;-62
2022/10/11 00:38:36;;;;;;;620.55;568.50;;;14.60;99.90;;;14.81;100.00;101067.59;4820766;29;20221;-61
2022/10/11 00:41:04;;;;;;;651.47;593.67;;;14.60;99.90;;;14.79;100.00;101063.16;4824599;29;20229;-61
2022/10/11 00:43:32;;;;;;;623.95;570.70;;;14.60;99.90;;;14.78;100.00;101072.03;4816061;29;20238;-61
2022/10/11 00:46:04;;;;;;;635.67;580.42;;;14.60;99.90;;;14.79;100.00;101074.69;4839459;29;20237;-62
2022/10/11 00:48:40;;;;;;;635.72;580.20;;;14.60;99.90;;;14.77;100.00;101070.25;4823395;29;20222;-61
2022/10/11 00:51:43;;;;;;;624.25;571.30;;;14.60;99.90;;;14.68;100.00;101063.16;4827085;29;20229;-61
2022/10/11 00:54:15;;;;;;;618.83;564.47;;;14.60;99.90;;;14.64;100.00;101072.91;4824685;29;20241;-62
2022/10/11 00:56:48;;;;;;;640.35;583.08;;;14.50;99.90;;;14.61;100.00;101072.88;4800383;29;20214;-61
2022/10/11 00:59:25;;;;;;;612.75;558.88;;;14.50;99.90;;;14.59;100.00;101072.00;4824325;29;20217;-62
2022/10/11 01:02:06;;;;;;;654.88;598.47;;;14.50;99.90;;;14.59;100.00;101076.44;4824907;29;20222;-62
2022/10/11 01:04:34;;;;;;;600.60;548.40;;;14.40;99.90;;;14.57;100.00;101070.22;4819973;29;20259;-87
2022/10/11 01:07:02;;;;;;;606.90;554.75;;;14.40;99.90;;;14.57;100.00;101070.22;4800812;29;20219;-87
2022/10/11 01:09:31;;;;;;;617.25;563.58;;;14.40;99.90;;;14.52;100.00;101059.56;4801484;29;20220;-87
2022/10/11 01:12:02;;;;;;;602.30;550.05;;;14.10;99.90;;;14.52;100.00;101064.88;4805623;29;20782;-87
2022/10/11 01:14:46;;;;;;;599.47;547.33;;;14.40;99.90;;;14.53;100.00;101063.09;4805985;29;20720;-87
2022/10/11 01:17:42;;;;;;;595.15;542.90;;;14.40;99.90;;;14.44;100.00;101063.97;4805268;29;20207;-85
2022/10/11 01:20:22;;;;;;;588.30;536.92;;;14.30;99.90;;;14.47;100.00;101071.06;4800188;29;20223;-85
2022/10/11 01:23:47;;;;;;;592.88;539.92;;;14.30;99.90;;;14.43;100.00;101067.50;4811889;29;20211;-87
2022/10/11 01:26:56;;;;;;;589.85;536.28;;;14.30;99.90;;;14.42;100.00;101068.38;4802656;29;20239;-87
2022/10/11 01:29:55;;;;;;;584.88;532.10;;;14.20;99.90;;;14.44;100.00;101068.41;4804758;29;20227;-87
2022/10/11 01:32:43;;;;;;;580.72;528.03;;;14.30;99.90;;;14.39;100.00;101068.34;4799009;29;20231;-87
2022/10/11 01:35:27;;;;;;;579.80;527.55;;;14.20;99.90;;;14.40;100.00;101075.44;4804895;29;20235;-86
2022/10/11 01:38:24;;;;;;;582.05;529.78;;;14.30;99.90;;;14.40;100.00;101072.78;4787537;29;20218;-86
2022/10/11 01:41:05;;;;;;;587.38;535.45;;;14.20;99.90;;;14.36;100.00;101082.53;4804799;29;20218;-87
2022/10/11 01:43:35;;;;;;;583.80;531.78;;;14.20;99.90;;;14.36;100.00;101084.31;4798772;29;20211;-87
2022/10/11 01:47:19;;;;;;;590.97;538.28;;;14.20;99.90;;;14.36;100.00;101082.53;4807363;29;20242;-86
2022/10/11 01:49:57;;;;;;;565.13;512.95;;;14.20;99.90;;;14.34;100.00;101084.28;4797090;29;20222;-86
2022/10/11 01:52:29;;;;;;;569.67;517.63;;;14.20;99.90;;;14.33;100.00;101084.28;4793901;29;20215;-85
2022/10/11 01:55:20;;;;;;;572.45;520.53;;;14.20;99.90;;;14.29;100.00;101088.69;4794806;29;20250;-86
2022/10/11 01:57:56;;;;;;;571.75;519.38;;;14.20;99.90;;;14.29;100.00;101093.09;4795575;29;20215;-85
2022/10/11 02:00:41;;;;;;;573.90;521.42;;;14.10;99.90;;;14.26;100.00;101096.66;4795151;29;20222;-87
2022/10/11 02:03:31;;;;;;;567.75;516.42;;;14.10;99.90;;;14.27;100.00;101109.06;4789575;29;20227;-85
2022/10/11 02:06:19;;;;;;;577.67;525.92;;;14.10;99.90;;;14.24;100.00;101101.06;4806952;29;20254;-85
2022/10/11 02:09:21;;;;;;;572.38;520.35;;;14.10;99.90;;;14.24;100.00;101109.06;4793320;29;20234;-86
2022/10/11 02:11:56;;;;;;;569.60;517.63;;;14.10;99.90;;;14.23;100.00;101112.59;4794470;29;20241;-86
2022/10/11 02:14:30;;;;;;;577.22;524.78;;;14.10;99.90;;;14.18;100.00;101117.00;4794255;29;20236;-87
2022/10/11 02:17:09;;;;;;;575.97;523.97;;;14.00;99.90;;;14.12;100.00;101116.97;4810859;29;20211;-86
2022/10/11 02:19:44;;;;;;;580.08;527.17;;;14.00;99.90;;;14.13;100.00;101126.72;4811515;29;20215;-87
2022/10/11 02:22:27;;;;;;;575.88;524.17;;;14.00;99.90;;;14.09;100.00;101117.84;4808276;29;20208;-85
2022/10/11 02:24:59;;;;;;;570.17;518.72;;;14.00;99.90;;;14.07;100.00;101118.72;4799025;29;20250;-87
2022/10/11 02:27:32;;;;;;;572.33;521.20;;;13.90;99.90;;;14.04;100.00;101116.94;4817634;29;20208;-88
2022/10/11 02:30:04;;;;;;;575.78;524.17;;;13.90;99.90;;;14.03;100.00;101119.56;4801897;29;20222;-87
2022/10/11 02:32:34;;;;;;;573.28;521.58;;;13.90;99.90;;;13.99;100.00;101116.00;4800689;29;20228;-85
2022/10/11 02:35:03;;;;;;;569.33;517.85;;;13.80;99.90;;;13.95;100.00;101115.97;4800560;29;20239;-87
2022/10/11 02:37:57;;;;;;;571.15;519.70;;;13.80;99.90;;;13.90;100.00;101123.94;4803255;29;20215;-87
2022/10/11 02:40:32;;;;;;;561.85;510.63;;;13.80;99.90;;;13.88;100.00;101124.81;4799528;29;20222;-90
2022/10/11 02:43:30;;;;;;;568.38;516.30;;;13.80;99.90;;;13.83;100.00;101129.19;4799373;29;20218;-86
2022/10/11 02:46:00;;;;;;;558.35;507.15;;;13.70;99.90;;;13.77;100.00;101127.38;4802561;29;20243;-86
2022/10/11 02:48:29;;;;;;;560.67;509.35;;;13.60;99.90;;;13.71;100.00;101130.91;4803046;29;20207;-87
2022/10/11 02:50:58;;;;;;;575.17;522.95;;;13.60;99.90;;;13.66;100.00;101131.75;4800485;29;20215;-86
2022/10/11 02:53:26;;;;;;;569.45;517.40;;;13.60;99.90;;;13.64;100.00;101128.19;4794879;29;20216;-86
2022/10/11 02:55:55;;;;;;;567.05;515.28;;;13.50;99.90;;;13.61;100.00;101133.47;4802352;29;20270;-86
2022/10/11 02:58:23;;;;;;;565.45;513.75;;;13.50;99.90;;;13.58;100.00;101141.41;4792219;29;20220;-86
2022/10/11 03:00:51;;;;;;;558.10;506.75;;;13.40;99.90;;;13.52;100.00;101141.38;4799819;29;20211;-87
2022/10/11 03:03:19;;;;;;;556.33;504.83;;;13.40;99.90;;;13.43;100.00;101127.13;4801719;29;20261;-87
2022/10/11 03:05:47;;;;;;;564.70;512.55;;;13.40;99.90;;;13.43;100.00;101137.75;4800318;29;20228;-87
2022/10/11 03:08:16;;;;;;;562.10;510.65;;;13.30;99.90;;;13.37;100.00;101131.50;4789771;29;20216;-89
2022/10/11 03:10:44;;;;;;;554.85;502.42;;;13.30;99.90;;;13.29;100.00;101123.47;4801536;29;20238;-87
2022/10/11 03:13:13;;;;;;;553.88;502.02;;;13.20;99.90;;;13.22;100.00;101132.25;4800582;29;20214;-88
2022/10/11 03:15:53;;;;;;;539.10;487.00;;;13.10;99.90;;;13.22;100.00;101126.06;4795059;29;20249;-86
2022/10/11 03:18:34;;;;;;;531.95;480.88;;;13.10;99.90;;;13.12;100.00;101130.34;4803668;29;20203;-88
2022/10/11 03:21:02;;;;;;;527.63;476.60;;;13.10;99.90;;;13.07;100.00;101138.28;4793139;29;20223;-86
2022/10/11 03:23:30;;;;;;;529.45;478.38;;;13.00;99.90;;;13.01;100.00;101132.00;4790324;29;20207;-88
2022/10/11 03:25:58;;;;;;;527.25;476.02;;;12.90;99.90;;;12.89;100.00;101124.78;4803222;29;20254;-88
2022/10/11 03:28:26;;;;;;;525.13;474.30;;;12.80;99.90;;;12.87;100.00;101121.22;4802828;29;20211;-86
2022/10/11 03:30:55;;;;;;;515.15;464.65;;;12.70;99.90;;;12.78;100.00;101118.47;4802296;29;20219;-88
2022/10/11 03:33:23;;;;;;;516.75;465.73;;;;;;;12.74;100.00;101120.19;4804333;29;20219;-88
2022/10/11 03:35:51;;;;;;;523.50;472.50;;;12.60;99.90;;;12.73;100.00;101133.44;4806209;29;20231;-87
2022/10/11 03:38:21;;;;;;;512.40;461.60;;;12.60;99.90;;;12.71;100.00;101138.75;4807284;29;20211;-90
2022/10/11 03:40:49;;;;;;;514.70;463.58;;;12.60;99.90;;;12.72;100.00;101139.63;4809762;29;20230;-88
2022/10/11 03:43:17;;;;;;;513.20;461.90;;;12.60;99.90;;;12.76;100.00;101152.06;4811579;29;20223;-87
2022/10/11 03:45:45;;;;;;;500.80;450.52;;;12.60;99.90;;;12.74;100.00;101151.16;4807696;29;20235;-89
2022/10/11 03:48:14;;;;;;;511.73;460.23;;;12.60;99.90;;;12.77;100.00;101148.53;4815023;29;20219;-89
2022/10/11 03:50:42;;;;;;;505.08;454.02;;;12.60;99.90;;;12.74;100.00;101153.81;4820320;29;20630;-88
2022/10/11 03:53:10;;;;;;;506.63;455.60;;;12.60;99.90;;;12.76;100.00;101146.75;4812243;29;20207;-88
2022/10/11 03:55:39;;;;;;;500.38;449.88;;;12.60;99.90;;;12.73;100.00;101144.06;4808344;29;20716;-88
2022/10/11 03:58:08;;;;;;;509.45;458.30;;;12.60;99.90;;;12.77;100.00;101149.44;4795061;29;20208;-87
2022/10/11 04:00:36;;;;;;;504.80;453.30;;;12.60;99.90;;;12.74;100.00;101151.16;4806901;29;20214;-87
2022/10/11 04:03:04;;;;;;;509.08;457.60;;;12.60;99.90;;;12.69;100.00;101148.44;4805749;29;20224;-87
2022/10/11 04:05:32;;;;;;;501.48;450.38;;;12.60;99.90;;;12.71;100.00;101152.00;4812187;29;20239;-87
2022/10/11 04:08:00;;;;;;;503.75;452.45;;;12.60;99.90;;;12.66;100.00;101145.75;4806526;29;20211;-87
2022/10/11 04:10:30;;;;;;;512.95;460.88;;;12.60;99.90;;;12.68;100.00;101149.31;4804546;29;20215;-86
2022/10/11 04:12:58;;;;;;;501.65;450.75;;;12.50;99.90;;;12.69;100.00;101150.22;4825971;29;20215;-87
2022/10/11 04:15:26;;;;;;;498.88;447.48;;;12.50;99.90;;;12.70;100.00;101167.91;4813881;29;20230;-88
2022/10/11 04:17:54;;;;;;;502.83;451.77;;;12.50;99.90;;;12.71;100.00;101173.25;4818158;29;20219;-86
2022/10/11 04:20:22;;;;;;;502.45;451.50;;;12.60;99.90;;;12.66;100.00;101169.63;4804006;29;20207;-88
2022/10/11 04:22:50;;;;;;;504.63;453.38;;;12.50;99.90;;;12.62;100.00;101166.94;4818735;29;20211;-86
2022/10/11 04:25:18;;;;;;;507.80;455.95;;;12.50;99.90;;;12.59;100.00;101174.84;4812545;29;20239;-89
2022/10/11 04:27:46;;;;;;;504.90;453.60;;;12.50;99.90;;;12.57;100.00;101173.94;4805089;29;20250;-87
2022/10/11 04:30:15;;;;;;;502.67;451.52;;;12.50;99.90;;;12.57;100.00;101188.09;4801961;29;20211;-86
2022/10/11 04:32:44;;;;;;;496.17;445.30;;;12.40;99.90;;;12.58;100.00;101197.84;4804967;29;20230;-86
2022/10/11 04:35:12;;;;;;;501.30;450.45;;;12.50;99.90;;;12.59;100.00;101196.97;4804808;29;20609;-87
2022/10/11 04:37:40;;;;;;;500.40;449.52;;;12.50;99.90;;;12.56;100.00;101201.34;4806045;29;20215;-87
2022/10/11 04:40:09;;;;;;;497.38;445.63;;;12.40;99.90;;;12.56;100.00;101217.28;4805060;29;20224;-87
2022/10/11 04:42:36;;;;;;;500.73;449.27;;;12.40;99.90;;;12.58;100.00;101226.13;4805587;29;20239;-87
2022/10/11 04:45:05;;;;;;;501.77;450.45;;;12.40;99.90;;;12.56;100.00;101235.84;4806139;29;20266;-85
2022/10/11 04:47:33;;;;;;;501.27;450.05;;;12.40;99.90;;;12.54;100.00;101245.53;4809534;29;20249;-88
2022/10/11 04:50:01;;;;;;;490.02;438.15;;;12.40;99.90;;;12.52;100.00;101237.56;4803689;29;20212;-83
2022/10/11 04:52:29;;;;;;;494.65;443.75;;;12.40;99.90;;;12.45;100.00;101233.03;4800532;29;20234;-84
2022/10/11 04:54:57;;;;;;;493.65;442.58;;;12.30;99.90;;;12.46;100.00;101243.69;4800065;29;20242;-84
2022/10/11 04:57:25;;;;;;;491.42;440.13;;;12.30;99.90;;;12.44;100.00;101232.16;4800386;29;20223;-84
2022/10/11 04:59:53;;;;;;;479.50;429.88;;;12.30;99.90;;;12.42;100.00;101247.16;4808073;29;20214;-84
2022/10/11 05:02:21;;;;;;;485.77;434.13;;;12.30;99.90;;;12.40;100.00;101246.25;4802125;29;20219;-87
2022/10/11 05:04:50;;;;;;;486.65;435.42;;;12.30;99.90;;;12.37;100.00;101253.25;4799536;29;20219;-87
2022/10/11 05:07:18;;;;;;;481.80;430.65;;;12.30;99.90;;;12.32;100.00;101253.19;4798008;29;20235;-88
2022/10/11 05:09:45;;;;;;;488.80;436.42;;;12.20;99.90;;;12.30;100.00;101259.34;4797706;29;20207;-87
2022/10/11 05:12:13;;;;;;;489.15;437.63;;;12.20;99.90;;;12.30;100.00;101256.69;4800374;29;20228;-87
2022/10/11 05:14:41;;;;;;;477.73;427.20;;;12.20;99.90;;;12.28;100.00;101259.31;4799738;29;20211;-88
2022/10/11 05:17:09;;;;;;;477.27;426.35;;;12.20;99.90;;;12.25;100.00;101253.06;4802615;29;20212;-88
2022/10/11 05:19:37;;;;;;;485.15;432.30;;;12.20;99.90;;;12.24;100.00;101252.19;4812584;29;20219;-88
2022/10/11 05:22:05;;;;;;;482.98;431.52;;;12.10;99.90;;;12.21;100.00;101252.16;4799800;29;20641;-88
2022/10/11 05:24:33;;;;;;;478.15;426.45;;;12.10;99.90;;;12.18;100.00;101255.63;4794485;29;20234;-87
2022/10/11 05:27:01;;;;;;;479.85;428.23;;;12.10;99.90;;;12.20;100.00;101254.78;4797397;29;20241;-85
2022/10/11 05:29:30;;;;;;;479.88;427.83;;;12.10;99.90;;;12.10;100.00;101249.31;4808316;29;20243;-86
2022/10/11 05:31:58;;;;;;;469.05;418.10;;;12.00;99.90;;;12.11;100.00;101259.06;4797504;29;20228;-86
2022/10/11 05:34:26;;;;;;;466.92;415.77;;;12.00;99.90;;;12.09;100.00;101259.91;4803920;29;20295;-89
2022/10/11 05:36:55;;;;;;;458.80;408.85;;;12.00;99.90;;;12.04;100.00;101251.88;4803084;29;20235;-88
2022/10/11 05:39:23;;;;;;;463.73;412.85;;;12.00;99.90;;;12.06;100.00;101254.56;4806368;29;20222;-88
2022/10/11 05:41:51;;;;;;;463.10;412.67;;;12.00;99.90;;;12.04;100.00;101253.63;4801307;29;20215;-87
2022/10/11 05:44:19;;;;;;;451.48;401.60;;;11.90;99.90;;;11.97;100.00;101242.03;4805317;29;20211;-88
2022/10/11 05:46:47;;;;;;;451.08;390.92;;;11.90;99.90;;;11.91;100.00;101227.78;4804072;29;20322;-87
2022/10/11 05:49:15;;;;;;;449.65;388.48;;;11.90;99.90;;;11.81;100.00;101200.25;4803317;29;20204;-88
2022/10/11 05:51:43;;;;;;;449.10;385.35;;;11.80;99.90;;;11.76;100.00;101176.28;4795135;29;20692;-87
2022/10/11 05:54:11;;;;;;;446.67;383.83;;;11.70;99.90;;;11.71;100.00;101146.19;4801922;29;20219;-87
2022/10/11 05:56:39;;;;;;;444.70;380.40;;;11.60;99.90;;;11.69;100.00;101129.34;4805128;29;20239;-86
2022/10/11 05:59:07;;;;;;;446.80;377.52;;;11.60;99.90;;;11.68;100.00;101114.31;4803951;29;20232;-86
2022/10/11 06:01:35;;;;;;;452.67;385.42;;;11.60;99.90;;;11.73;100.00;101109.13;4800696;29;20364;-87
2022/10/11 06:04:03;;;;;;;444.83;383.17;;;11.60;99.90;;;11.68;100.00;101113.41;4792899;29;20215;-87
2022/10/11 06:06:32;;;;;;;454.33;388.38;;;11.60;99.90;;;11.66;100.00;101124.00;4800623;29;20231;-87
2022/10/11 06:09:00;;;;;;;450.25;389.30;;;11.60;99.90;;;11.70;100.00;101141.75;4809721;29;20593;-87
2022/10/11 06:11:28;;;;;;;441.98;376.02;;;11.60;99.90;;;11.69;100.00;101155.84;4803297;29;20207;-87
2022/10/11 06:13:57;;;;;;;442.17;377.65;;;11.60;99.90;;;11.74;100.00;101169.19;4803678;29;20237;-87
2022/10/11 06:16:26;;;;;;;451.80;384.42;;;11.60;99.90;;;11.69;100.00;101174.38;4802148;29;20231;-87
2022/10/11 06:18:56;;;;;;;445.20;383.80;;;11.60;99.90;;;11.70;100.00;101183.22;4818439;29;20222;-88
2022/10/11 06:21:24;;;;;;;441.00;375.88;;;11.60;99.90;;;11.70;100.00;101191.16;4806264;29;20220;-87
2022/10/11 06:23:52;;;;;;;443.77;380.73;;;11.60;99.90;;;11.60;100.00;101194.53;4802549;29;20218;-86
2022/10/11 06:26:28;;;;;;;445.15;374.42;;;11.60;99.90;;;11.57;100.00;101190.06;4797243;29;20226;-87
2022/10/11 06:28:57;;;;;;;444.83;375.23;;;11.50;99.90;;;11.62;100.00;101212.25;4803022;29;20227;-87
2022/10/11 06:31:25;;;;;;;454.30;383.77;;;11.50;99.90;;;11.63;100.00;101224.63;4801884;29;20231;-87
2022/10/11 06:33:53;;;;;;;442.98;372.90;;;11.50;99.90;;;11.59;100.00;101233.38;4800009;29;20220;-86
2022/10/11 06:36:21;;;;;;;442.17;370.17;;;11.50;99.90;;;11.61;100.00;101246.66;4803752;29;20300;-87
2022/10/11 06:38:53;;;;;;;445.17;376.42;;;11.50;99.90;;;11.68;100.00;101268.00;4804910;29;20220;-86
2022/10/11 06:41:25;;;;;;;448.75;374.67;;;11.50;99.90;;;11.63;100.00;101266.13;4800606;29;20207;-86
2022/10/11 06:43:53;;;;;;;442.98;369.05;;;11.50;99.90;;;11.63;100.00;101279.38;4803127;29;20219;-86
2022/10/11 06:46:24;;;;;;;442.40;363.60;;;11.50;99.90;;;11.60;100.00;101280.22;4802542;29;20242;-85
2022/10/11 06:48:53;;;;;;;442.48;368.02;;;11.50;99.90;;;11.55;100.00;101271.28;4804474;29;20239;-87
2022/10/11 06:51:23;;;;;;;439.98;364.65;;;11.50;99.90;;;11.53;100.00;101273.91;4802978;29;20238;-86
2022/10/11 06:53:55;;;;;;;452.15;372.48;;;11.50;99.90;;;11.59;100.00;101269.56;4797635;29;20219;-87
2022/10/11 06:56:26;;;;;;;453.90;372.58;;;11.40;99.90;;;11.59;100.00;101269.56;4796499;29;20234;-86
2022/10/11 06:58:56;;;;;;;444.63;365.73;;;11.50;99.90;;;11.52;100.00;101256.22;4797219;29;20214;-88
2022/10/11 07:01:25;;;;;;;452.48;370.88;;;11.40;99.90;;;11.53;100.00;101265.06;4802124;29;20222;-88
2022/10/11 07:03:56;;;;;;;448.77;364.88;;;11.40;99.90;;;11.64;100.00;101263.50;4797951;29;20223;-87
2022/10/11 07:06:29;;;;;;;450.15;361.70;;;11.50;99.90;;;11.68;100.00;101262.69;4801534;29;20231;-87
2022/10/11 07:08:59;;;;;;;438.60;357.45;;;11.50;99.90;;;11.67;100.00;101263.56;4805880;29;20249;-87
2022/10/11 07:11:28;;;;;;;440.38;362.02;;;11.60;99.90;;;11.57;100.00;101245.72;4799441;29;20665;-87
2022/10/11 07:13:59;;;;;;;446.52;364.67;;;11.40;99.90;;;11.61;100.00;101236.94;4797548;29;20215;-86
2022/10/11 07:16:30;;;;;;;449.67;368.05;;;11.50;99.90;;;11.57;100.00;101235.09;4797016;29;20238;-87
2022/10/11 07:19:00;;;;;;;455.77;371.13;;;11.40;99.90;;;11.60;100.00;101231.63;4795327;29;20211;-86
2022/10/11 07:21:31;;;;;;;441.77;352.60;;;11.50;99.90;;;11.51;100.00;101217.34;4796808;29;20219;-86
2022/10/11 07:24:00;;;;;;;445.45;360.17;;;11.40;99.90;;;11.57;100.00;101229.81;4796947;29;20219;-87
2022/10/11 07:26:29;;;;;;;446.00;363.35;;;11.40;99.90;;;11.60;100.00;101224.56;4800248;29;20234;-89
2022/10/11 07:29:07;;;;;;;452.73;365.50;;;11.50;99.90;;;11.53;100.00;101217.38;4794585;29;20227;-86
2022/10/11 07:31:38;;;;;;;452.70;365.58;;;11.40;99.90;;;11.66;100.00;101243.22;4793702;29;20544;-86
2022/10/11 07:34:07;;;;;;;452.92;369.92;;;11.50;99.90;;;11.58;100.00;101234.25;4808452;29;20215;-86
2022/10/11 07:36:35;;;;;;;446.38;364.73;;;11.50;99.90;;;11.57;100.00;101220.97;4792122;29;20248;-86
2022/10/11 07:39:06;;;;;;;452.95;369.00;;;11.50;99.90;;;11.70;100.00;101238.88;4793721;29;20215;-88
2022/10/11 07:41:35;;;;;;;443.80;368.80;;;11.60;99.90;;;11.71;100.00;101241.56;4800414;29;20215;-86
2022/10/11 07:44:08;;;;;;;439.58;357.02;;;11.50;99.90;;;11.59;100.00;101213.94;4800653;29;20231;-87
2022/10/11 07:46:36;;;;;;;435.77;351.52;;;11.50;99.90;;;11.70;100.00;101234.50;4803449;29;20227;-86
2022/10/11 07:49:05;;;;;;;438.85;355.45;;;11.50;99.90;;;11.80;100.00;101254.13;4803407;29;20243;-86
2022/10/11 07:51:33;;;;;;;441.35;363.88;;;11.70;99.90;;;11.77;100.00;101244.38;4802260;29;20545;-86
2022/10/11 07:54:02;;;;;;;445.42;362.63;;;11.60;99.90;;;11.74;100.00;101230.13;4808556;29;20215;-86
2022/10/11 07:56:36;;;;;;;434.58;360.30;;;11.60;99.90;;;11.71;100.00;101224.78;4802279;29;20242;-87
2022/10/11 07:59:05;;;;;;;439.92;362.20;;;11.60;99.90;;;11.79;100.00;101252.34;4798201;29;20216;-86
2022/10/11 08:01:33;;;;;;;436.25;362.58;;;11.60;99.90;;;11.77;100.00;101254.03;4803707;29;20215;-86
2022/10/11 08:04:02;;;;;;;440.10;368.73;;;11.60;99.90;;;11.72;100.00;101248.66;4786108;29;20235;-86
2022/10/11 08:06:31;;;;;;;440.17;370.25;;;11.60;99.90;;;11.87;100.00;101281.63;4788013;29;20232;-86
2022/10/11 08:09:00;;;;;;;436.90;369.52;;;11.70;99.90;;;11.98;100.00;101291.53;4791151;29;20240;-86
2022/10/11 08:11:32;;;;;;;435.63;369.13;;;11.80;99.90;;;11.89;100.00;101283.44;4796531;29;20212;-86
2022/10/11 08:14:03;;;;;;;443.45;372.08;;;11.80;99.90;;;11.79;100.00;101274.44;4804540;29;20230;-86
2022/10/11 08:16:31;;;;;;;439.63;377.17;;;11.80;99.90;;;11.94;100.00;101291.47;4801610;29;20258;-86
2022/10/11 08:19:00;;;;;;;444.42;382.50;;;11.80;99.90;;;11.72;100.00;101276.91;4806129;29;20219;-85
2022/10/11 08:21:28;;;;;;;437.80;371.45;;;11.70;99.90;;;11.71;100.00;101273.38;4808663;29;20709;-87
2022/10/11 08:23:56;;;;;;;439.17;372.75;;;11.60;99.90;;;11.71;100.00;101289.28;4812721;29;20214;-86
2022/10/11 08:26:25;;;;;;;440.45;374.95;;;11.60;99.90;;;11.75;100.00;101298.16;4806966;29;20231;-86
2022/10/11 08:28:53;;;;;;;440.95;372.95;;;11.60;99.90;;;11.82;100.00;101314.25;4801658;29;20238;-86
2022/10/11 08:31:21;;;;;;;436.02;384.42;;;11.70;99.90;;;11.88;100.00;101320.50;4803263;29;20211;-86
2022/10/11 08:33:49;;;;;;;446.27;381.83;;;11.80;99.90;;;11.76;100.00;101303.50;4813035;29;20215;-86
2022/10/11 08:36:17;;;;;;;443.77;382.08;;;;;;;11.81;100.00;101304.50;4811673;29;20231;-86
2022/10/11 08:38:45;;;;;;;442.38;389.92;;;11.70;99.90;;;11.90;100.00;101318.78;4809497;29;20215;-86
2022/10/11 08:41:27;;;;;;;446.13;393.70;;;11.80;99.90;;;11.89;100.00;101301.09;4804468;29;20221;-86
2022/10/11 08:44:02;;;;;;;441.30;388.92;;;11.70;99.90;;;11.97;100.00;101321.56;4805322;29;20218;-86
2022/10/11 08:46:34;;;;;;;438.88;386.17;;;11.80;99.90;;;11.80;100.00;101292.13;4808381;29;20241;-86
2022/10/11 08:49:04;;;;;;;443.25;388.70;;;11.80;99.90;;;11.95;100.00;101312.69;4797145;29;20621;-86
2022/10/11 08:51:58;;;;;;;442.30;391.25;;;11.80;99.90;;;11.95;100.00;101318.00;4816082;29;20215;-86
2022/10/11 08:54:44;;;;;;;442.92;382.83;;;11.90;99.90;;;12.00;100.00;101316.31;4806738;29;20220;-85
2022/10/11 08:57:25;;;;;;;448.27;385.67;;;11.90;99.90;;;11.91;100.00;101289.66;4828601;29;20223;-87
2022/10/11 08:59:58;;;;;;;438.90;383.38;;;11.80;99.90;;;12.12;100.00;101328.91;4803117;29;20246;-85
2022/10/11 09:03:03;;;;;;;448.23;390.30;;;12.00;99.90;;;12.20;100.00;101315.75;4803735;29;20215;-85
2022/10/11 09:06:30;;;;;;;438.05;373.85;;;12.10;99.90;;;12.28;100.00;101316.78;4812830;29;20239;-86
2022/10/11 09:09:27;;;;;;;443.10;378.17;;;12.10;99.90;;;12.58;100.00;101341.13;4804660;29;20250;-86
2022/10/11 09:12:32;;;;;;;442.65;382.67;;;12.30;99.90;;;12.67;100.00;101333.31;4818430;29;20231;-86
2022/10/11 09:15:13;;;;;;;449.05;389.42;;;12.50;99.90;;;12.79;100.00;101314.91;4802681;29;20242;-85
2022/10/11 09:18:20;;;;;;;448.13;397.33;;;12.60;99.90;;;12.88;100.00;101295.56;4804643;29;20215;-86
2022/10/11 09:21:15;;;;;;;443.70;393.30;;;12.70;99.90;;;12.83;100.00;101273.38;4804002;29;20688;-86
2022/10/11 09:24:08;;;;;;;446.17;397.27;;;12.60;99.90;;;12.98;100.00;101281.53;4804319;29;20212;-86
2022/10/11 09:26:55;;;;;;;461.90;411.30;;;12.80;99.90;;;13.09;100.00;101281.69;4803676;29;20610;-85
2022/10/11 09:30:03;;;;;;;461.88;412.73;;;12.90;99.90;;;13.34;100.00;101309.47;4800200;29;20235;-86
2022/10/11 09:32:37;;;;;;;462.65;413.23;;;13.00;99.90;;;13.14;100.00;101259.63;4802992;29;20231;-85
2022/10/11 09:35:19;;;;;;;480.25;430.65;;;13.10;99.90;;;13.11;100.00;101264.91;4808405;29;20253;-85
2022/10/11 09:38:08;;;;;;;483.02;433.02;;;12.90;99.90;;;13.20;100.00;101248.22;4808140;29;20222;-86
2022/10/11 09:41:12;;;;;;;477.08;426.90;;;13.10;99.90;;;13.14;100.00;101237.50;4786187;29;20207;-86
2022/10/11 09:43:47;;;;;;;478.70;428.73;;;12.90;99.90;;;13.23;100.00;101245.59;4815938;29;20548;-86
2022/10/11 09:46:40;;;;;;;490.15;440.35;;;13.00;99.90;;;13.55;100.00;101282.25;4810974;29;20257;-85
2022/10/11 09:49:15;;;;;;;499.20;448.13;;;13.30;99.90;;;13.61;100.00;101280.53;4803332;29;20250;-87
2022/10/11 09:51:52;;;;;;;502.92;452.65;;;13.40;99.90;;;13.44;100.00;101242.28;4815215;29;20215;-86
2022/10/11 09:54:26;;;;;;;515.85;464.23;;;13.30;99.90;;;13.31;100.00;101245.69;4815051;29;20226;-86
2022/10/11 09:56:54;;;;;;;508.48;458.30;;;13.30;99.90;;;13.48;100.00;101269.78;4791478;29;20243;-86
2022/10/11 09:59:28;;;;;;;516.63;465.70;;;13.30;99.90;;;13.59;100.00;101284.94;4806353;29;20230;-88
2022/10/11 10:02:18;;;;;;;515.78;465.05;;;13.40;99.90;;;13.41;100.00;101228.97;4805121;29;20222;-88
2022/10/11 10:05:07;;;;;;;518.97;467.98;;;13.40;99.90;;;13.61;100.00;101250.41;4803874;29;20212;-87
2022/10/11 10:07:39;;;;;;;515.08;464.00;;;13.40;99.90;;;13.68;100.00;101263.78;4797426;29;20219;-88
2022/10/11 10:10:39;;;;;;;518.10;467.40;;;13.50;99.90;;;13.67;100.00;101243.38;4817172;29;20238;-87